sensor_id;sensor_type;location;lat;lon;timestamp;P1;durP1;ratioP1;P2;durP2;ratioP2
19861;SDS011;10093;48.148;8.542;2023-10-09T00:00:05;16.83;;;3.95;;
19861;SDS011;10093;48.148;8.542;2023-10-09T00:02:50;20.55;;;4.38;;
19861;SDS011;10093;48.148;8.542;2023-10-09T00:05:15;15.45;;;4.03;;
19861;SDS011;10093;48.148;8.542;2023-10-09T00:08:03;24.65;;;5.40;;
19861;SDS011;10093;48.148;8.542;2023-10-09T00:10:29;22.17;;;4.53;;
19861;SDS011;10093;48.148;8.542;2023-10-09T00:13:10;16.67;;;3.95;;
19861;SDS011;10093;48.148;8.542;2023-10-09T00:15:35;22.08;;;4.38;;
19861;SDS011;10093;48.148;8.542;2023-10-09T00:18:01;13.85;;;3.97;;
19861;SDS011;10093;48.148;8.542;2023-10-09T00:20:35;14.65;;;4.70;;
19861;SDS011;10093;48.148;8.542;2023-10-09T00:23:08;15.02;;;4.28;;
19861;SDS011;10093;48.148;8.542;2023-10-09T00:25:37;16.30;;;4.50;;
19861;SDS011;10093;48.148;8.542;2023-10-09T00:28:10;13.10;;;4.07;;
19861;SDS011;10093;48.148;8.542;2023-10-09T00:30:40;18.20;;;4.32;;
19861;SDS011;10093;48.148;8.542;2023-10-09T00:33:06;21.77;;;4.57;;
19861;SDS011;10093;48.148;8.542;2023-10-09T00:35:36;14.52;;;4.10;;
19861;SDS011;10093;48.148;8.542;2023-10-09T00:38:08;17.20;;;4.80;;
19861;SDS011;10093;48.148;8.542;2023-10-09T00:40:49;18.52;;;4.80;;
19861;SDS011;10093;48.148;8.542;2023-10-09T00:43:28;15.45;;;4.20;;
19861;SDS011;10093;48.148;8.542;2023-10-09T00:45:54;17.65;;;4.57;;
19861;SDS011;10093;48.148;8.542;2023-10-09T00:48:21;17.38;;;4.82;;
19861;SDS011;10093;48.148;8.542;2023-10-09T00:50:59;23.60;;;4.10;;
19861;SDS011;10093;48.148;8.542;2023-10-09T00:53:26;14.80;;;4.30;;
19861;SDS011;10093;48.148;8.542;2023-10-09T00:55:59;20.55;;;4.25;;
19861;SDS011;10093;48.148;8.542;2023-10-09T00:58:44;21.90;;;4.68;;
19861;SDS011;10093;48.148;8.542;2023-10-09T01:01:15;18.85;;;4.55;;
19861;SDS011;10093;48.148;8.542;2023-10-09T01:03:41;20.88;;;4.13;;
19861;SDS011;10093;48.148;8.542;2023-10-09T01:06:08;19.20;;;4.32;;
19861;SDS011;10093;48.148;8.542;2023-10-09T01:08:35;22.50;;;4.18;;
19861;SDS011;10093;48.148;8.542;2023-10-09T01:11:07;21.45;;;4.55;;
19861;SDS011;10093;48.148;8.542;2023-10-09T01:13:44;18.33;;;4.75;;
19861;SDS011;10093;48.148;8.542;2023-10-09T01:16:13;18.10;;;4.28;;
19861;SDS011;10093;48.148;8.542;2023-10-09T01:18:46;20.20;;;4.40;;
19861;SDS011;10093;48.148;8.542;2023-10-09T01:21:22;12.98;;;4.03;;
19861;SDS011;10093;48.148;8.542;2023-10-09T01:23:52;15.95;;;3.90;;
19861;SDS011;10093;48.148;8.542;2023-10-09T01:26:27;23.98;;;4.45;;
19861;SDS011;10093;48.148;8.542;2023-10-09T01:29:13;19.17;;;4.93;;
19861;SDS011;10093;48.148;8.542;2023-10-09T01:34:15;14.80;;;4.47;;
19861;SDS011;10093;48.148;8.542;2023-10-09T01:36:42;21.08;;;4.88;;
19861;SDS011;10093;48.148;8.542;2023-10-09T01:39:08;16.27;;;4.15;;
19861;SDS011;10093;48.148;8.542;2023-10-09T01:41:53;16.25;;;4.65;;
19861;SDS011;10093;48.148;8.542;2023-10-09T01:44:30;23.40;;;4.53;;
19861;SDS011;10093;48.148;8.542;2023-10-09T01:47:01;19.55;;;4.40;;
19861;SDS011;10093;48.148;8.542;2023-10-09T01:49:32;19.95;;;4.32;;
19861;SDS011;10093;48.148;8.542;2023-10-09T01:52:00;18.05;;;4.22;;
19861;SDS011;10093;48.148;8.542;2023-10-09T01:54:34;17.20;;;4.53;;
19861;SDS011;10093;48.148;8.542;2023-10-09T01:57:05;19.58;;;4.65;;
19861;SDS011;10093;48.148;8.542;2023-10-09T01:59:37;20.20;;;4.45;;
19861;SDS011;10093;48.148;8.542;2023-10-09T02:02:24;18.63;;;4.18;;
19861;SDS011;10093;48.148;8.542;2023-10-09T02:04:54;19.23;;;4.45;;
19861;SDS011;10093;48.148;8.542;2023-10-09T02:07:50;20.13;;;5.38;;
19861;SDS011;10093;48.148;8.542;2023-10-09T02:10:17;21.20;;;4.55;;
19861;SDS011;10093;48.148;8.542;2023-10-09T02:12:56;18.48;;;5.05;;
19861;SDS011;10093;48.148;8.542;2023-10-09T02:15:32;19.52;;;4.10;;
19861;SDS011;10093;48.148;8.542;2023-10-09T02:18:25;23.02;;;4.70;;
19861;SDS011;10093;48.148;8.542;2023-10-09T02:26:15;16.75;;;4.03;;
19861;SDS011;10093;48.148;8.542;2023-10-09T02:28:44;18.77;;;4.25;;
19861;SDS011;10093;48.148;8.542;2023-10-09T02:31:17;20.23;;;4.15;;
19861;SDS011;10093;48.148;8.542;2023-10-09T02:33:47;18.38;;;4.32;;
19861;SDS011;10093;48.148;8.542;2023-10-09T02:36:15;14.63;;;4.28;;
19861;SDS011;10093;48.148;8.542;2023-10-09T02:38:41;20.27;;;4.43;;
19861;SDS011;10093;48.148;8.542;2023-10-09T02:41:08;15.73;;;4.40;;
19861;SDS011;10093;48.148;8.542;2023-10-09T02:43:37;16.13;;;4.22;;
19861;SDS011;10093;48.148;8.542;2023-10-09T02:46:13;15.10;;;4.30;;
19861;SDS011;10093;48.148;8.542;2023-10-09T02:48:49;16.67;;;4.32;;
19861;SDS011;10093;48.148;8.542;2023-10-09T02:51:21;18.45;;;4.25;;
19861;SDS011;10093;48.148;8.542;2023-10-09T02:53:51;18.60;;;4.30;;
19861;SDS011;10093;48.148;8.542;2023-10-09T02:56:21;19.88;;;4.28;;
19861;SDS011;10093;48.148;8.542;2023-10-09T02:58:52;22.40;;;5.07;;
19861;SDS011;10093;48.148;8.542;2023-10-09T03:01:18;18.85;;;4.55;;
19861;SDS011;10093;48.148;8.542;2023-10-09T03:03:44;16.05;;;4.43;;
19861;SDS011;10093;48.148;8.542;2023-10-09T03:06:14;21.58;;;4.88;;
19861;SDS011;10093;48.148;8.542;2023-10-09T03:08:44;16.55;;;4.35;;
19861;SDS011;10093;48.148;8.542;2023-10-09T03:11:12;23.92;;;4.50;;
19861;SDS011;10093;48.148;8.542;2023-10-09T03:13:42;17.27;;;4.43;;
19861;SDS011;10093;48.148;8.542;2023-10-09T03:16:12;18.90;;;4.50;;
19861;SDS011;10093;48.148;8.542;2023-10-09T03:18:44;14.65;;;4.60;;
19861;SDS011;10093;48.148;8.542;2023-10-09T03:21:14;16.27;;;3.63;;
19861;SDS011;10093;48.148;8.542;2023-10-09T03:23:41;14.20;;;3.75;;
19861;SDS011;10093;48.148;8.542;2023-10-09T03:26:08;15.18;;;3.80;;
19861;SDS011;10093;48.148;8.542;2023-10-09T03:28:36;20.58;;;4.15;;
19861;SDS011;10093;48.148;8.542;2023-10-09T03:31:01;12.30;;;3.20;;
19861;SDS011;10093;48.148;8.542;2023-10-09T03:33:27;19.40;;;4.22;;
19861;SDS011;10093;48.148;8.542;2023-10-09T03:35:58;16.25;;;3.80;;
19861;SDS011;10093;48.148;8.542;2023-10-09T03:38:26;22.05;;;4.35;;
19861;SDS011;10093;48.148;8.542;2023-10-09T03:41:00;15.35;;;3.75;;
19861;SDS011;10093;48.148;8.542;2023-10-09T03:43:30;21.48;;;4.13;;
19861;SDS011;10093;48.148;8.542;2023-10-09T03:45:59;21.08;;;4.15;;
19861;SDS011;10093;48.148;8.542;2023-10-09T03:48:28;18.33;;;4.20;;
19861;SDS011;10093;48.148;8.542;2023-10-09T03:50:57;18.92;;;4.00;;
19861;SDS011;10093;48.148;8.542;2023-10-09T03:53:34;20.45;;;4.40;;
19861;SDS011;10093;48.148;8.542;2023-10-09T03:56:07;14.05;;;3.88;;
19861;SDS011;10093;48.148;8.542;2023-10-09T03:58:41;17.73;;;3.63;;
19861;SDS011;10093;48.148;8.542;2023-10-09T04:01:15;14.50;;;4.10;;
19861;SDS011;10093;48.148;8.542;2023-10-09T04:03:55;22.98;;;4.45;;
19861;SDS011;10093;48.148;8.542;2023-10-09T04:06:24;23.50;;;4.07;;
19861;SDS011;10093;48.148;8.542;2023-10-09T04:08:55;11.70;;;3.35;;
19861;SDS011;10093;48.148;8.542;2023-10-09T04:11:23;19.77;;;4.07;;
19861;SDS011;10093;48.148;8.542;2023-10-09T04:13:49;17.58;;;3.30;;
19861;SDS011;10093;48.148;8.542;2023-10-09T04:16:17;15.77;;;3.58;;
19861;SDS011;10093;48.148;8.542;2023-10-09T04:19:05;18.20;;;4.03;;
19861;SDS011;10093;48.148;8.542;2023-10-09T04:21:36;22.83;;;3.90;;
19861;SDS011;10093;48.148;8.542;2023-10-09T04:24:06;19.45;;;3.92;;
19861;SDS011;10093;48.148;8.542;2023-10-09T04:26:35;17.33;;;4.00;;
19861;SDS011;10093;48.148;8.542;2023-10-09T04:29:16;14.25;;;4.03;;
19861;SDS011;10093;48.148;8.542;2023-10-09T04:32:03;19.08;;;4.72;;
19861;SDS011;10093;48.148;8.542;2023-10-09T04:34:33;16.75;;;3.90;;
19861;SDS011;10093;48.148;8.542;2023-10-09T04:37:13;16.92;;;3.97;;
19861;SDS011;10093;48.148;8.542;2023-10-09T04:39:39;18.20;;;4.78;;
19861;SDS011;10093;48.148;8.542;2023-10-09T04:42:12;17.13;;;4.20;;
19861;SDS011;10093;48.148;8.542;2023-10-09T04:44:51;21.02;;;4.15;;
19861;SDS011;10093;48.148;8.542;2023-10-09T04:47:36;19.15;;;4.70;;
19861;SDS011;10093;48.148;8.542;2023-10-09T04:50:25;17.30;;;4.47;;
19861;SDS011;10093;48.148;8.542;2023-10-09T04:52:57;14.77;;;4.15;;
19861;SDS011;10093;48.148;8.542;2023-10-09T04:55:38;14.48;;;4.03;;
19861;SDS011;10093;48.148;8.542;2023-10-09T04:58:09;12.25;;;4.18;;
19861;SDS011;10093;48.148;8.542;2023-10-09T05:00:38;17.60;;;4.10;;
19861;SDS011;10093;48.148;8.542;2023-10-09T05:03:07;16.70;;;3.75;;
19861;SDS011;10093;48.148;8.542;2023-10-09T05:05:36;16.17;;;3.65;;
19861;SDS011;10093;48.148;8.542;2023-10-09T05:08:08;10.77;;;3.65;;
19861;SDS011;10093;48.148;8.542;2023-10-09T05:10:48;16.10;;;4.25;;
19861;SDS011;10093;48.148;8.542;2023-10-09T05:18:43;15.50;;;4.43;;
19861;SDS011;10093;48.148;8.542;2023-10-09T05:21:10;17.13;;;4.07;;
19861;SDS011;10093;48.148;8.542;2023-10-09T05:23:41;17.50;;;3.70;;
19861;SDS011;10093;48.148;8.542;2023-10-09T05:26:17;16.33;;;3.85;;
19861;SDS011;10093;48.148;8.542;2023-10-09T05:29:02;21.98;;;4.38;;
19861;SDS011;10093;48.148;8.542;2023-10-09T05:32:04;19.17;;;5.18;;
19861;SDS011;10093;48.148;8.542;2023-10-09T05:34:51;20.00;;;4.68;;
19861;SDS011;10093;48.148;8.542;2023-10-09T05:37:25;21.23;;;4.82;;
19861;SDS011;10093;48.148;8.542;2023-10-09T05:39:58;16.50;;;4.30;;
19861;SDS011;10093;48.148;8.542;2023-10-09T05:42:25;21.30;;;4.32;;
19861;SDS011;10093;48.148;8.542;2023-10-09T05:45:15;15.45;;;3.60;;
19861;SDS011;10093;48.148;8.542;2023-10-09T05:47:47;16.38;;;4.25;;
19861;SDS011;10093;48.148;8.542;2023-10-09T05:50:24;18.85;;;4.03;;
19861;SDS011;10093;48.148;8.542;2023-10-09T05:52:54;18.38;;;3.90;;
19861;SDS011;10093;48.148;8.542;2023-10-09T05:55:21;16.67;;;3.75;;
19861;SDS011;10093;48.148;8.542;2023-10-09T05:57:56;20.55;;;4.07;;
19861;SDS011;10093;48.148;8.542;2023-10-09T06:00:28;20.08;;;3.63;;
19861;SDS011;10093;48.148;8.542;2023-10-09T06:03:12;13.73;;;3.28;;
19861;SDS011;10093;48.148;8.542;2023-10-09T06:05:43;18.77;;;3.83;;
19861;SDS011;10093;48.148;8.542;2023-10-09T06:08:19;15.40;;;3.30;;
19861;SDS011;10093;48.148;8.542;2023-10-09T06:11:03;13.77;;;3.60;;
19861;SDS011;10093;48.148;8.542;2023-10-09T06:13:48;13.13;;;3.28;;
19861;SDS011;10093;48.148;8.542;2023-10-09T06:16:23;10.35;;;2.85;;
19861;SDS011;10093;48.148;8.542;2023-10-09T06:19:04;19.73;;;3.55;;
19861;SDS011;10093;48.148;8.542;2023-10-09T06:21:36;15.80;;;3.38;;
19861;SDS011;10093;48.148;8.542;2023-10-09T06:24:20;9.40;;;2.65;;
19861;SDS011;10093;48.148;8.542;2023-10-09T06:27:07;14.02;;;3.33;;
19861;SDS011;10093;48.148;8.542;2023-10-09T06:29:36;15.35;;;3.22;;
19861;SDS011;10093;48.148;8.542;2023-10-09T06:32:04;13.13;;;3.05;;
19861;SDS011;10093;48.148;8.542;2023-10-09T06:34:58;10.85;;;3.20;;
19861;SDS011;10093;48.148;8.542;2023-10-09T06:37:43;13.15;;;3.40;;
19861;SDS011;10093;48.148;8.542;2023-10-09T06:40:35;13.65;;;3.05;;
19861;SDS011;10093;48.148;8.542;2023-10-09T06:43:21;12.27;;;3.30;;
19861;SDS011;10093;48.148;8.542;2023-10-09T06:45:48;18.23;;;3.72;;
19861;SDS011;10093;48.148;8.542;2023-10-09T06:48:26;18.02;;;3.50;;
19861;SDS011;10093;48.148;8.542;2023-10-09T06:51:01;14.20;;;3.28;;
19861;SDS011;10093;48.148;8.542;2023-10-09T06:53:46;12.15;;;3.20;;
19861;SDS011;10093;48.148;8.542;2023-10-09T06:56:27;15.02;;;3.13;;
19861;SDS011;10093;48.148;8.542;2023-10-09T06:58:57;12.98;;;3.40;;
19861;SDS011;10093;48.148;8.542;2023-10-09T07:01:40;17.67;;;4.35;;
19861;SDS011;10093;48.148;8.542;2023-10-09T07:04:09;27.85;;;4.72;;
19861;SDS011;10093;48.148;8.542;2023-10-09T07:06:43;16.55;;;4.22;;
19861;SDS011;10093;48.148;8.542;2023-10-09T07:09:12;24.15;;;7.97;;
19861;SDS011;10093;48.148;8.542;2023-10-09T07:11:39;23.92;;;8.98;;
19861;SDS011;10093;48.148;8.542;2023-10-09T07:14:11;13.73;;;5.05;;
19861;SDS011;10093;48.148;8.542;2023-10-09T07:19:53;18.20;;;4.38;;
19861;SDS011;10093;48.148;8.542;2023-10-09T07:22:19;10.48;;;4.13;;
19861;SDS011;10093;48.148;8.542;2023-10-09T07:24:45;15.20;;;3.75;;
19861;SDS011;10093;48.148;8.542;2023-10-09T07:27:26;14.40;;;4.43;;
19861;SDS011;10093;48.148;8.542;2023-10-09T07:30:09;14.90;;;4.20;;
19861;SDS011;10093;48.148;8.542;2023-10-09T07:35:35;13.25;;;4.45;;
19861;SDS011;10093;48.148;8.542;2023-10-09T07:38:14;20.73;;;4.00;;
19861;SDS011;10093;48.148;8.542;2023-10-09T07:40:53;13.90;;;4.30;;
19861;SDS011;10093;48.148;8.542;2023-10-09T07:43:33;13.30;;;4.18;;
19861;SDS011;10093;48.148;8.542;2023-10-09T07:46:16;16.83;;;3.63;;
19861;SDS011;10093;48.148;8.542;2023-10-09T07:48:55;15.55;;;3.50;;
19861;SDS011;10093;48.148;8.542;2023-10-09T07:51:22;16.05;;;2.80;;
19861;SDS011;10093;48.148;8.542;2023-10-09T07:53:55;15.63;;;3.53;;
19861;SDS011;10093;48.148;8.542;2023-10-09T07:56:25;18.52;;;3.60;;
19861;SDS011;10093;48.148;8.542;2023-10-09T07:58:55;20.58;;;3.75;;
19861;SDS011;10093;48.148;8.542;2023-10-09T08:01:25;15.30;;;3.25;;
19861;SDS011;10093;48.148;8.542;2023-10-09T08:04:03;21.45;;;3.60;;
19861;SDS011;10093;48.148;8.542;2023-10-09T08:06:37;12.32;;;2.95;;
19861;SDS011;10093;48.148;8.542;2023-10-09T08:09:04;21.00;;;3.42;;
19861;SDS011;10093;48.148;8.542;2023-10-09T08:11:44;21.77;;;4.13;;
19861;SDS011;10093;48.148;8.542;2023-10-09T08:14:12;12.57;;;3.53;;
19861;SDS011;10093;48.148;8.542;2023-10-09T08:17:04;14.98;;;3.67;;
19861;SDS011;10093;48.148;8.542;2023-10-09T08:19:41;16.67;;;3.28;;
19861;SDS011;10093;48.148;8.542;2023-10-09T08:24:52;16.25;;;3.70;;
19861;SDS011;10093;48.148;8.542;2023-10-09T08:27:27;19.73;;;3.78;;
19861;SDS011;10093;48.148;8.542;2023-10-09T08:29:58;13.38;;;3.17;;
19861;SDS011;10093;48.148;8.542;2023-10-09T08:32:56;17.50;;;3.25;;
19861;SDS011;10093;48.148;8.542;2023-10-09T08:35:32;18.25;;;3.92;;
19861;SDS011;10093;48.148;8.542;2023-10-09T08:38:11;14.85;;;3.40;;
19861;SDS011;10093;48.148;8.542;2023-10-09T08:40:38;15.65;;;2.85;;
19861;SDS011;10093;48.148;8.542;2023-10-09T08:43:15;16.95;;;3.15;;
19861;SDS011;10093;48.148;8.542;2023-10-09T08:45:49;20.17;;;3.75;;
19861;SDS011;10093;48.148;8.542;2023-10-09T08:53:11;21.77;;;3.22;;
19861;SDS011;10093;48.148;8.542;2023-10-09T08:55:39;20.85;;;3.45;;
19861;SDS011;10093;48.148;8.542;2023-10-09T08:58:05;13.77;;;3.05;;
19861;SDS011;10093;48.148;8.542;2023-10-09T09:00:43;21.83;;;3.63;;
19861;SDS011;10093;48.148;8.542;2023-10-09T09:03:11;22.70;;;3.97;;
19861;SDS011;10093;48.148;8.542;2023-10-09T09:05:37;18.73;;;3.35;;
19861;SDS011;10093;48.148;8.542;2023-10-09T09:08:03;24.27;;;8.02;;
19861;SDS011;10093;48.148;8.542;2023-10-09T09:10:29;27.67;;;8.50;;
19861;SDS011;10093;48.148;8.542;2023-10-09T09:13:03;31.70;;;10.57;;
19861;SDS011;10093;48.148;8.542;2023-10-09T09:15:30;24.95;;;6.72;;
19861;SDS011;10093;48.148;8.542;2023-10-09T09:18:06;20.65;;;5.47;;
19861;SDS011;10093;48.148;8.542;2023-10-09T09:20:42;21.10;;;4.57;;
19861;SDS011;10093;48.148;8.542;2023-10-09T09:23:11;15.40;;;4.00;;
19861;SDS011;10093;48.148;8.542;2023-10-09T09:25:47;19.63;;;4.50;;
19861;SDS011;10093;48.148;8.542;2023-10-09T09:28:13;19.80;;;3.60;;
19861;SDS011;10093;48.148;8.542;2023-10-09T09:30:46;13.32;;;3.17;;
19861;SDS011;10093;48.148;8.542;2023-10-09T09:36:13;17.00;;;4.60;;
19861;SDS011;10093;48.148;8.542;2023-10-09T09:38:39;14.23;;;3.42;;
19861;SDS011;10093;48.148;8.542;2023-10-09T09:41:17;13.50;;;3.50;;
19861;SDS011;10093;48.148;8.542;2023-10-09T09:43:55;19.23;;;3.33;;
19861;SDS011;10093;48.148;8.542;2023-10-09T09:46:22;17.40;;;3.63;;
19861;SDS011;10093;48.148;8.542;2023-10-09T09:49:08;17.58;;;4.15;;
19861;SDS011;10093;48.148;8.542;2023-10-09T09:51:42;14.13;;;3.63;;
19861;SDS011;10093;48.148;8.542;2023-10-09T09:54:11;22.02;;;4.45;;
19861;SDS011;10093;48.148;8.542;2023-10-09T09:56:40;17.35;;;3.28;;
19861;SDS011;10093;48.148;8.542;2023-10-09T09:59:15;15.70;;;3.95;;
19861;SDS011;10093;48.148;8.542;2023-10-09T10:01:52;23.90;;;4.22;;
19861;SDS011;10093;48.148;8.542;2023-10-09T10:04:26;22.17;;;3.60;;
19861;SDS011;10093;48.148;8.542;2023-10-09T10:06:54;15.85;;;3.60;;
19861;SDS011;10093;48.148;8.542;2023-10-09T10:09:41;21.45;;;5.78;;
19861;SDS011;10093;48.148;8.542;2023-10-09T10:12:13;27.27;;;4.80;;
19861;SDS011;10093;48.148;8.542;2023-10-09T10:14:53;18.45;;;3.88;;
19861;SDS011;10093;48.148;8.542;2023-10-09T10:20:26;17.45;;;2.70;;
19861;SDS011;10093;48.148;8.542;2023-10-09T10:23:15;13.05;;;2.58;;
19861;SDS011;10093;48.148;8.542;2023-10-09T10:25:50;22.42;;;3.15;;
19861;SDS011;10093;48.148;8.542;2023-10-09T10:28:24;13.88;;;2.45;;
19861;SDS011;10093;48.148;8.542;2023-10-09T10:30:54;20.00;;;3.15;;
19861;SDS011;10093;48.148;8.542;2023-10-09T10:33:20;17.60;;;2.75;;
19861;SDS011;10093;48.148;8.542;2023-10-09T10:35:47;21.40;;;3.22;;
19861;SDS011;10093;48.148;8.542;2023-10-09T10:41:16;21.58;;;2.83;;
19861;SDS011;10093;48.148;8.542;2023-10-09T10:43:43;17.42;;;2.45;;
19861;SDS011;10093;48.148;8.542;2023-10-09T10:46:15;23.77;;;2.63;;
19861;SDS011;10093;48.148;8.542;2023-10-09T10:48:55;20.70;;;2.60;;
19861;SDS011;10093;48.148;8.542;2023-10-09T10:51:25;20.98;;;2.13;;
19861;SDS011;10093;48.148;8.542;2023-10-09T10:53:59;18.55;;;2.35;;
19861;SDS011;10093;48.148;8.542;2023-10-09T10:56:46;23.25;;;2.20;;
19861;SDS011;10093;48.148;8.542;2023-10-09T10:59:16;19.35;;;2.53;;
19861;SDS011;10093;48.148;8.542;2023-10-09T11:01:48;15.63;;;2.25;;
19861;SDS011;10093;48.148;8.542;2023-10-09T11:04:45;20.70;;;2.53;;
19861;SDS011;10093;48.148;8.542;2023-10-09T11:07:21;23.77;;;2.83;;
19861;SDS011;10093;48.148;8.542;2023-10-09T11:09:53;24.45;;;2.78;;
19861;SDS011;10093;48.148;8.542;2023-10-09T11:12:23;22.52;;;2.85;;
19861;SDS011;10093;48.148;8.542;2023-10-09T11:15:03;14.32;;;2.53;;
19861;SDS011;10093;48.148;8.542;2023-10-09T11:17:34;18.58;;;3.05;;
19861;SDS011;10093;48.148;8.542;2023-10-09T11:20:02;24.60;;;2.90;;
19861;SDS011;10093;48.148;8.542;2023-10-09T11:22:55;15.05;;;2.20;;
19861;SDS011;10093;48.148;8.542;2023-10-09T11:25:39;15.77;;;2.03;;
19861;SDS011;10093;48.148;8.542;2023-10-09T11:28:24;20.08;;;2.47;;
19861;SDS011;10093;48.148;8.542;2023-10-09T11:30:55;16.00;;;2.40;;
19861;SDS011;10093;48.148;8.542;2023-10-09T11:33:42;25.33;;;2.83;;
19861;SDS011;10093;48.148;8.542;2023-10-09T11:36:11;15.15;;;2.10;;
19861;SDS011;10093;48.148;8.542;2023-10-09T11:38:36;16.08;;;2.20;;
19861;SDS011;10093;48.148;8.542;2023-10-09T11:41:15;13.95;;;2.15;;
19861;SDS011;10093;48.148;8.542;2023-10-09T11:43:48;20.63;;;2.60;;
19861;SDS011;10093;48.148;8.542;2023-10-09T11:46:20;20.00;;;3.05;;
19861;SDS011;10093;48.148;8.542;2023-10-09T11:49:10;20.83;;;2.65;;
19861;SDS011;10093;48.148;8.542;2023-10-09T11:51:44;19.25;;;2.20;;
19861;SDS011;10093;48.148;8.542;2023-10-09T11:56:56;15.63;;;2.10;;
19861;SDS011;10093;48.148;8.542;2023-10-09T11:59:26;21.38;;;2.22;;
19861;SDS011;10093;48.148;8.542;2023-10-09T12:02:04;22.95;;;2.38;;
19861;SDS011;10093;48.148;8.542;2023-10-09T12:04:30;17.50;;;2.70;;
19861;SDS011;10093;48.148;8.542;2023-10-09T12:06:56;25.13;;;2.50;;
19861;SDS011;10093;48.148;8.542;2023-10-09T12:09:38;22.70;;;2.65;;
19861;SDS011;10093;48.148;8.542;2023-10-09T12:12:05;24.02;;;2.20;;
19861;SDS011;10093;48.148;8.542;2023-10-09T12:14:32;20.20;;;2.70;;
19861;SDS011;10093;48.148;8.542;2023-10-09T12:17:01;15.30;;;2.42;;
19861;SDS011;10093;48.148;8.542;2023-10-09T12:19:39;18.67;;;2.20;;
19861;SDS011;10093;48.148;8.542;2023-10-09T12:22:05;17.15;;;2.22;;
19861;SDS011;10093;48.148;8.542;2023-10-09T12:24:35;15.85;;;2.60;;
19861;SDS011;10093;48.148;8.542;2023-10-09T12:27:02;11.48;;;2.25;;
19861;SDS011;10093;48.148;8.542;2023-10-09T12:29:35;17.30;;;2.15;;
19861;SDS011;10093;48.148;8.542;2023-10-09T12:32:00;17.35;;;1.83;;
19861;SDS011;10093;48.148;8.542;2023-10-09T12:34:28;13.45;;;2.10;;
19861;SDS011;10093;48.148;8.542;2023-10-09T12:36:56;16.55;;;2.15;;
19861;SDS011;10093;48.148;8.542;2023-10-09T12:39:26;17.95;;;2.70;;
19861;SDS011;10093;48.148;8.542;2023-10-09T12:41:58;21.55;;;2.10;;
19861;SDS011;10093;48.148;8.542;2023-10-09T12:44:31;19.50;;;2.25;;
19861;SDS011;10093;48.148;8.542;2023-10-09T12:47:06;12.15;;;2.28;;
19861;SDS011;10093;48.148;8.542;2023-10-09T12:49:32;15.07;;;2.00;;
19861;SDS011;10093;48.148;8.542;2023-10-09T12:51:58;20.95;;;2.25;;
19861;SDS011;10093;48.148;8.542;2023-10-09T12:54:27;17.85;;;2.33;;
19861;SDS011;10093;48.148;8.542;2023-10-09T12:56:56;16.52;;;2.20;;
19861;SDS011;10093;48.148;8.542;2023-10-09T12:59:23;18.55;;;2.45;;
19861;SDS011;10093;48.148;8.542;2023-10-09T13:01:49;21.48;;;2.50;;
19861;SDS011;10093;48.148;8.542;2023-10-09T13:04:23;17.85;;;2.63;;
19861;SDS011;10093;48.148;8.542;2023-10-09T13:06:49;19.77;;;2.75;;
19861;SDS011;10093;48.148;8.542;2023-10-09T13:09:19;23.75;;;2.88;;
19861;SDS011;10093;48.148;8.542;2023-10-09T13:11:59;18.33;;;2.10;;
19861;SDS011;10093;48.148;8.542;2023-10-09T13:14:29;17.38;;;2.50;;
19861;SDS011;10093;48.148;8.542;2023-10-09T13:16:59;12.05;;;1.77;;
19861;SDS011;10093;48.148;8.542;2023-10-09T13:19:25;16.45;;;2.17;;
19861;SDS011;10093;48.148;8.542;2023-10-09T13:21:50;16.73;;;2.70;;
19861;SDS011;10093;48.148;8.542;2023-10-09T13:24:16;18.70;;;2.50;;
19861;SDS011;10093;48.148;8.542;2023-10-09T13:26:42;17.02;;;2.15;;
19861;SDS011;10093;48.148;8.542;2023-10-09T13:29:11;22.63;;;2.35;;
19861;SDS011;10093;48.148;8.542;2023-10-09T13:31:37;20.08;;;2.42;;
19861;SDS011;10093;48.148;8.542;2023-10-09T13:34:05;19.00;;;2.30;;
19861;SDS011;10093;48.148;8.542;2023-10-09T13:36:40;18.13;;;2.78;;
19861;SDS011;10093;48.148;8.542;2023-10-09T13:39:14;13.20;;;1.98;;
19861;SDS011;10093;48.148;8.542;2023-10-09T13:41:53;16.45;;;1.80;;
19861;SDS011;10093;48.148;8.542;2023-10-09T13:44:31;15.05;;;2.40;;
19861;SDS011;10093;48.148;8.542;2023-10-09T13:46:59;24.88;;;2.20;;
19861;SDS011;10093;48.148;8.542;2023-10-09T13:49:26;17.08;;;2.25;;
19861;SDS011;10093;48.148;8.542;2023-10-09T13:51:55;14.82;;;2.38;;
19861;SDS011;10093;48.148;8.542;2023-10-09T13:54:22;17.30;;;2.40;;
19861;SDS011;10093;48.148;8.542;2023-10-09T13:57:04;20.48;;;2.58;;
19861;SDS011;10093;48.148;8.542;2023-10-09T13:59:31;20.50;;;2.22;;
19861;SDS011;10093;48.148;8.542;2023-10-09T14:01:59;17.52;;;2.40;;
19861;SDS011;10093;48.148;8.542;2023-10-09T14:04:27;14.93;;;2.55;;
19861;SDS011;10093;48.148;8.542;2023-10-09T14:06:53;17.63;;;2.42;;
19861;SDS011;10093;48.148;8.542;2023-10-09T14:09:22;17.08;;;2.30;;
19861;SDS011;10093;48.148;8.542;2023-10-09T14:12:03;16.38;;;2.15;;
19861;SDS011;10093;48.148;8.542;2023-10-09T14:14:41;23.45;;;2.55;;
19861;SDS011;10093;48.148;8.542;2023-10-09T14:17:17;19.58;;;2.53;;
19861;SDS011;10093;48.148;8.542;2023-10-09T14:19:53;21.95;;;2.30;;
19861;SDS011;10093;48.148;8.542;2023-10-09T14:22:21;25.20;;;2.70;;
19861;SDS011;10093;48.148;8.542;2023-10-09T14:24:50;22.50;;;2.83;;
19861;SDS011;10093;48.148;8.542;2023-10-09T14:27:23;16.40;;;2.30;;
19861;SDS011;10093;48.148;8.542;2023-10-09T14:29:54;21.23;;;2.55;;
19861;SDS011;10093;48.148;8.542;2023-10-09T14:32:21;22.52;;;2.28;;
19861;SDS011;10093;48.148;8.542;2023-10-09T14:34:54;18.27;;;2.72;;
19861;SDS011;10093;48.148;8.542;2023-10-09T14:37:25;17.38;;;2.10;;
19861;SDS011;10093;48.148;8.542;2023-10-09T14:39:51;16.38;;;2.47;;
19861;SDS011;10093;48.148;8.542;2023-10-09T14:42:18;17.45;;;2.70;;
19861;SDS011;10093;48.148;8.542;2023-10-09T14:44:45;17.48;;;2.78;;
19861;SDS011;10093;48.148;8.542;2023-10-09T14:47:11;15.25;;;2.88;;
19861;SDS011;10093;48.148;8.542;2023-10-09T14:49:39;19.85;;;2.78;;
19861;SDS011;10093;48.148;8.542;2023-10-09T14:52:09;14.70;;;2.58;;
19861;SDS011;10093;48.148;8.542;2023-10-09T14:54:35;17.80;;;2.42;;
19861;SDS011;10093;48.148;8.542;2023-10-09T14:57:01;14.02;;;2.78;;
19861;SDS011;10093;48.148;8.542;2023-10-09T14:59:31;14.80;;;2.42;;
19861;SDS011;10093;48.148;8.542;2023-10-09T15:02:00;18.80;;;2.95;;
19861;SDS011;10093;48.148;8.542;2023-10-09T15:04:26;20.20;;;2.80;;
19861;SDS011;10093;48.148;8.542;2023-10-09T15:06:52;15.68;;;2.53;;
19861;SDS011;10093;48.148;8.542;2023-10-09T15:09:17;13.23;;;2.15;;
19861;SDS011;10093;48.148;8.542;2023-10-09T15:11:54;16.85;;;2.60;;
19861;SDS011;10093;48.148;8.542;2023-10-09T15:14:20;14.00;;;2.55;;
19861;SDS011;10093;48.148;8.542;2023-10-09T15:16:46;18.23;;;3.08;;
19861;SDS011;10093;48.148;8.542;2023-10-09T15:19:13;14.13;;;2.55;;
19861;SDS011;10093;48.148;8.542;2023-10-09T15:21:39;14.30;;;1.95;;
19861;SDS011;10093;48.148;8.542;2023-10-09T15:24:16;17.38;;;2.38;;
19861;SDS011;10093;48.148;8.542;2023-10-09T15:26:47;11.77;;;1.90;;
19861;SDS011;10093;48.148;8.542;2023-10-09T15:29:23;22.65;;;2.65;;
19861;SDS011;10093;48.148;8.542;2023-10-09T15:31:59;17.60;;;2.63;;
19861;SDS011;10093;48.148;8.542;2023-10-09T15:34:29;17.20;;;2.22;;
19861;SDS011;10093;48.148;8.542;2023-10-09T15:36:56;15.73;;;2.20;;
19861;SDS011;10093;48.148;8.542;2023-10-09T15:39:22;12.95;;;2.20;;
19861;SDS011;10093;48.148;8.542;2023-10-09T15:41:48;19.27;;;2.50;;
19861;SDS011;10093;48.148;8.542;2023-10-09T15:44:15;13.05;;;2.38;;